sensor_id;sensor_type;location;lat;lon;timestamp;pressure;altitude;pressure_sealevel;temperature;humidity
66430;BME280;53242;51.694;10.006;2022-09-29T00:00:17;98041.91;;;9.15;74.01
66430;BME280;53242;51.694;10.006;2022-09-29T00:02:40;98045.56;;;9.14;73.93
66430;BME280;53242;51.694;10.006;2022-09-29T00:05:03;98045.22;;;9.11;74.33
66430;BME280;53242;51.694;10.006;2022-09-29T00:07:27;98045.66;;;9.08;74.22
66430;BME280;53242;51.694;10.006;2022-09-29T00:09:49;98042.97;;;8.96;74.43
66430;BME280;53242;51.694;10.006;2022-09-29T00:12:12;98039.38;;;8.90;74.53
66430;BME280;53242;51.694;10.006;2022-09-29T00:14:34;98043.03;;;8.89;74.27
66430;BME280;53242;51.694;10.006;2022-09-29T00:16:57;98039.03;;;8.86;74.60
66430;BME280;53242;51.694;10.006;2022-09-29T00:19:19;98041.72;;;8.80;74.63
66430;BME280;53242;51.694;10.006;2022-09-29T00:21:42;98037.84;;;8.82;74.75
66430;BME280;53242;51.694;10.006;2022-09-29T00:24:04;98038.19;;;8.86;74.87
66430;BME280;53242;51.694;10.006;2022-09-29T00:26:27;98039.72;;;8.94;74.22
66430;BME280;53242;51.694;10.006;2022-09-29T00:28:55;98040.78;;;8.93;74.06
66430;BME280;53242;51.694;10.006;2022-09-29T00:31:19;98047.28;;;8.90;74.11
66430;BME280;53242;51.694;10.006;2022-09-29T00:33:42;98046.25;;;8.91;73.83
66430;BME280;53242;51.694;10.006;2022-09-29T00:36:08;98047.84;;;8.92;73.53
66430;BME280;53242;51.694;10.006;2022-09-29T00:38:32;98049.47;;;8.75;74.06
66430;BME280;53242;51.694;10.006;2022-09-29T00:40:55;98053.59;;;8.64;74.33
66430;BME280;53242;51.694;10.006;2022-09-29T00:43:21;98051.94;;;8.69;74.22
66430;BME280;53242;51.694;10.006;2022-09-29T00:45:44;98051.34;;;8.67;73.95
66430;BME280;53242;51.694;10.006;2022-09-29T00:48:12;98051.13;;;8.69;73.82
66430;BME280;53242;51.694;10.006;2022-09-29T00:50:50;98049.38;;;8.63;74.12
66430;BME280;53242;51.694;10.006;2022-09-29T00:53:15;98044.78;;;8.58;74.17
66430;BME280;53242;51.694;10.006;2022-09-29T00:55:44;98060.47;;;8.46;74.58
66430;BME280;53242;51.694;10.006;2022-09-29T00:58:31;98050.78;;;8.40;74.50
66430;BME280;53242;51.694;10.006;2022-09-29T01:00:54;98051.78;;;8.39;74.53
66430;BME280;53242;51.694;10.006;2022-09-29T01:03:18;98052.09;;;8.24;74.77
66430;BME280;53242;51.694;10.006;2022-09-29T01:05:46;98048.28;;;8.20;75.20
66430;BME280;53242;51.694;10.006;2022-09-29T01:08:15;98048.19;;;8.33;74.58
66430;BME280;53242;51.694;10.006;2022-09-29T01:10:40;98053.81;;;8.37;73.91
66430;BME280;53242;51.694;10.006;2022-09-29T01:13:02;98055.09;;;8.28;74.28
66430;BME280;53242;51.694;10.006;2022-09-29T01:15:25;98052.91;;;8.25;74.57
66430;BME280;53242;51.694;10.006;2022-09-29T01:17:48;98053.16;;;8.16;74.73
66430;BME280;53242;51.694;10.006;2022-09-29T01:20:14;98052.53;;;8.21;74.60
66430;BME280;53242;51.694;10.006;2022-09-29T01:28:58;98061.16;;;8.03;75.04
66430;BME280;53242;51.694;10.006;2022-09-29T01:31:41;98060.16;;;8.04;75.06
66430;BME280;53242;51.694;10.006;2022-09-29T01:39:42;98061.38;;;8.01;74.70
66430;BME280;53242;51.694;10.006;2022-09-29T01:42:21;98054.34;;;7.95;74.91
66430;BME280;53242;51.694;10.006;2022-09-29T01:44:53;98063.47;;;7.93;74.91
66430;BME280;53242;51.694;10.006;2022-09-29T01:47:39;98067.34;;;7.83;75.36
66430;BME280;53242;51.694;10.006;2022-09-29T01:50:07;98064.09;;;7.88;75.24
66430;BME280;53242;51.694;10.006;2022-09-29T01:52:40;98065.47;;;7.90;75.09
66430;BME280;53242;51.694;10.006;2022-09-29T01:55:07;98068.09;;;7.90;75.13
66430;BME280;53242;51.694;10.006;2022-09-29T01:57:51;98061.66;;;7.86;75.41
66430;BME280;53242;51.694;10.006;2022-09-29T02:00:17;98070.59;;;7.79;75.64
66430;BME280;53242;51.694;10.006;2022-09-29T02:03:15;98066.53;;;7.83;75.38
66430;BME280;53242;51.694;10.006;2022-09-29T02:05:40;98063.16;;;7.76;75.65
66430;BME280;53242;51.694;10.006;2022-09-29T02:08:12;98070.38;;;7.80;75.57
66430;BME280;53242;51.694;10.006;2022-09-29T02:13:20;98065.31;;;7.85;74.98
66430;BME280;53242;51.694;10.006;2022-09-29T02:15:45;98068.38;;;7.82;75.22
66430;BME280;53242;51.694;10.006;2022-09-29T02:18:16;98067.34;;;7.83;74.83
66430;BME280;53242;51.694;10.006;2022-09-29T02:20:41;98067.97;;;7.79;75.48
66430;BME280;53242;51.694;10.006;2022-09-29T02:23:03;98075.66;;;7.80;75.43
66430;BME280;53242;51.694;10.006;2022-09-29T02:25:26;98073.63;;;7.82;75.23
66430;BME280;53242;51.694;10.006;2022-09-29T02:27:48;98077.69;;;7.78;75.19
66430;BME280;53242;51.694;10.006;2022-09-29T02:30:12;98080.16;;;7.73;75.45
66430;BME280;53242;51.694;10.006;2022-09-29T02:32:35;98085.41;;;7.73;75.40
66430;BME280;53242;51.694;10.006;2022-09-29T02:34:57;98088.03;;;7.66;75.51
66430;BME280;53242;51.694;10.006;2022-09-29T02:37:31;98081.56;;;7.69;75.40
66430;BME280;53242;51.694;10.006;2022-09-29T02:40:28;98075.72;;;7.67;75.38
66430;BME280;53242;51.694;10.006;2022-09-29T02:48:42;98091.88;;;7.64;75.30
66430;BME280;53242;51.694;10.006;2022-09-29T02:51:49;98091.31;;;7.62;75.16
66430;BME280;53242;51.694;10.006;2022-09-29T02:54:32;98094.38;;;7.52;75.32
66430;BME280;53242;51.694;10.006;2022-09-29T03:02:29;98100.44;;;7.46;75.50
66430;BME280;53242;51.694;10.006;2022-09-29T03:04:52;98093.59;;;7.51;75.43
66430;BME280;53242;51.694;10.006;2022-09-29T03:07:15;98099.84;;;7.50;75.38
66430;BME280;53242;51.694;10.006;2022-09-29T03:09:37;98090.13;;;7.51;75.32
66430;BME280;53242;51.694;10.006;2022-09-29T03:12:00;98092.56;;;7.52;75.66
66430;BME280;53242;51.694;10.006;2022-09-29T03:14:23;98091.75;;;7.52;75.63
66430;BME280;53242;51.694;10.006;2022-09-29T03:16:45;98094.00;;;7.41;76.64
66430;BME280;53242;51.694;10.006;2022-09-29T03:19:08;98083.91;;;7.45;76.46
66430;BME280;53242;51.694;10.006;2022-09-29T03:21:31;98081.25;;;7.52;76.21
66430;BME280;53242;51.694;10.006;2022-09-29T03:23:54;98092.34;;;7.54;76.07
66430;BME280;53242;51.694;10.006;2022-09-29T03:26:16;98088.13;;;7.53;76.06
66430;BME280;53242;51.694;10.006;2022-09-29T03:28:39;98089.31;;;7.57;75.96
66430;BME280;53242;51.694;10.006;2022-09-29T03:31:06;98089.09;;;7.58;75.73
66430;BME280;53242;51.694;10.006;2022-09-29T03:33:30;98090.31;;;7.56;75.57
66430;BME280;53242;51.694;10.006;2022-09-29T03:35:53;98096.81;;;7.47;75.88
66430;BME280;53242;51.694;10.006;2022-09-29T03:38:15;98098.88;;;7.45;75.93
66430;BME280;53242;51.694;10.006;2022-09-29T03:40:38;98098.06;;;7.37;76.48
66430;BME280;53242;51.694;10.006;2022-09-29T03:43:00;98096.25;;;7.38;76.18
66430;BME280;53242;51.694;10.006;2022-09-29T03:45:23;98103.94;;;7.39;76.26
66430;BME280;53242;51.694;10.006;2022-09-29T03:47:45;98113.41;;;7.40;76.07
66430;BME280;53242;51.694;10.006;2022-09-29T03:50:08;98112.19;;;7.43;75.72
66430;BME280;53242;51.694;10.006;2022-09-29T03:52:30;98114.03;;;7.36;75.54
66430;BME280;53242;51.694;10.006;2022-09-29T03:54:53;98107.59;;;7.32;75.45
66430;BME280;53242;51.694;10.006;2022-09-29T03:57:15;98113.66;;;7.26;75.63
66430;BME280;53242;51.694;10.006;2022-09-29T03:59:38;98107.19;;;7.28;75.88
66430;BME280;53242;51.694;10.006;2022-09-29T04:02:00;98116.25;;;7.32;75.52
66430;BME280;53242;51.694;10.006;2022-09-29T04:04:24;98107.59;;;7.32;75.25
66430;BME280;53242;51.694;10.006;2022-09-29T04:06:46;98113.63;;;7.32;75.32
66430;BME280;53242;51.694;10.006;2022-09-29T04:09:09;98116.25;;;7.32;75.31
66430;BME280;53242;51.694;10.006;2022-09-29T04:11:31;98121.72;;;7.31;75.19
66430;BME280;53242;51.694;10.006;2022-09-29T04:13:54;98127.38;;;7.28;75.26
66430;BME280;53242;51.694;10.006;2022-09-29T04:16:16;98133.66;;;7.20;75.53
66430;BME280;53242;51.694;10.006;2022-09-29T04:18:39;98134.06;;;7.17;75.44
66430;BME280;53242;51.694;10.006;2022-09-29T04:21:06;98139.75;;;7.14;75.53
66430;BME280;53242;51.694;10.006;2022-09-29T04:23:29;98138.50;;;7.10;75.67
66430;BME280;53242;51.694;10.006;2022-09-29T04:25:51;98145.38;;;7.11;75.65
66430;BME280;53242;51.694;10.006;2022-09-29T04:28:14;98140.34;;;7.09;75.67
66430;BME280;53242;51.694;10.006;2022-09-29T04:30:36;98147.19;;;7.17;75.59
66430;BME280;53242;51.694;10.006;2022-09-29T04:32:59;98146.38;;;7.23;75.58
66430;BME280;53242;51.694;10.006;2022-09-29T04:35:21;98147.16;;;7.23;75.62
66430;BME280;53242;51.694;10.006;2022-09-29T04:37:44;98145.94;;;7.26;75.74
66430;BME280;53242;51.694;10.006;2022-09-29T04:40:07;98144.94;;;7.27;75.21
66430;BME280;53242;51.694;10.006;2022-09-29T04:42:29;98141.34;;;7.21;75.73
66430;BME280;53242;51.694;10.006;2022-09-29T04:44:52;98147.78;;;7.26;75.70
66430;BME280;53242;51.694;10.006;2022-09-29T04:47:15;98152.22;;;7.18;75.60
66430;BME280;53242;51.694;10.006;2022-09-29T04:49:38;98145.19;;;7.19;75.76
66430;BME280;53242;51.694;10.006;2022-09-29T04:52:00;98152.66;;;7.08;75.85
66430;BME280;53242;51.694;10.006;2022-09-29T04:54:23;98150.09;;;6.75;77.05
66430;BME280;53242;51.694;10.006;2022-09-29T04:56:49;98148.88;;;6.64;77.75
66430;BME280;53242;51.694;10.006;2022-09-29T04:59:12;98147.06;;;6.65;77.71
66430;BME280;53242;51.694;10.006;2022-09-29T05:01:34;98149.28;;;6.61;77.85
66430;BME280;53242;51.694;10.006;2022-09-29T05:03:57;98150.28;;;6.67;77.74
66430;BME280;53242;51.694;10.006;2022-09-29T05:06:19;98151.09;;;6.67;77.52
66430;BME280;53242;51.694;10.006;2022-09-29T05:08:42;98159.34;;;6.71;77.50
66430;BME280;53242;51.694;10.006;2022-09-29T05:11:05;98169.66;;;6.79;76.95
66430;BME280;53242;51.694;10.006;2022-09-29T05:13:28;98168.22;;;6.83;76.78
66430;BME280;53242;51.694;10.006;2022-09-29T05:15:54;98172.47;;;6.84;77.12
66430;BME280;53242;51.694;10.006;2022-09-29T05:18:17;98171.25;;;6.87;77.26
66430;BME280;53242;51.694;10.006;2022-09-29T05:20:40;98170.63;;;6.91;77.03
66430;BME280;53242;51.694;10.006;2022-09-29T05:23:02;98162.19;;;6.89;76.95
66430;BME280;53242;51.694;10.006;2022-09-29T05:25:31;98168.41;;;6.95;77.03
66430;BME280;53242;51.694;10.006;2022-09-29T05:27:54;98169.00;;;7.04;77.10
66430;BME280;53242;51.694;10.006;2022-09-29T05:30:16;98176.47;;;7.00;77.30
66430;BME280;53242;51.694;10.006;2022-09-29T05:32:41;98177.91;;;6.96;77.66
66430;BME280;53242;51.694;10.006;2022-09-29T05:35:05;98182.91;;;7.04;77.65
66430;BME280;53242;51.694;10.006;2022-09-29T05:37:28;98181.91;;;7.05;77.60
66430;BME280;53242;51.694;10.006;2022-09-29T05:39:50;98180.31;;;7.04;77.67
66430;BME280;53242;51.694;10.006;2022-09-29T05:42:13;98180.31;;;7.11;77.61
66430;BME280;53242;51.694;10.006;2022-09-29T05:44:35;98180.69;;;7.15;77.50
66430;BME280;53242;51.694;10.006;2022-09-29T05:46:58;98181.09;;;7.18;77.34
66430;BME280;53242;51.694;10.006;2022-09-29T05:49:21;98185.75;;;7.16;77.67
66430;BME280;53242;51.694;10.006;2022-09-29T05:51:44;98184.53;;;7.19;77.78
66430;BME280;53242;51.694;10.006;2022-09-29T05:54:07;98177.88;;;7.10;77.72
66430;BME280;53242;51.694;10.006;2022-09-29T05:56:29;98187.97;;;7.19;77.46
66430;BME280;53242;51.694;10.006;2022-09-29T05:58:52;98188.75;;;7.20;77.70
66430;BME280;53242;51.694;10.006;2022-09-29T06:01:18;98182.53;;;7.01;78.20
66430;BME280;53242;51.694;10.006;2022-09-29T06:03:41;98183.56;;;7.00;78.32
66430;BME280;53242;51.694;10.006;2022-09-29T06:06:14;98181.13;;;6.98;78.43
66430;BME280;53242;51.694;10.006;2022-09-29T06:08:37;98179.94;;;7.01;78.22
66430;BME280;53242;51.694;10.006;2022-09-29T06:11:12;98181.72;;;7.00;78.48
66430;BME280;53242;51.694;10.006;2022-09-29T06:13:46;98178.28;;;7.13;78.35
66430;BME280;53242;51.694;10.006;2022-09-29T06:16:10;98182.31;;;7.16;78.30
66430;BME280;53242;51.694;10.006;2022-09-29T06:18:33;98184.72;;;7.24;78.08
66430;BME280;53242;51.694;10.006;2022-09-29T06:21:09;98181.44;;;7.35;77.69
66430;BME280;53242;51.694;10.006;2022-09-29T06:23:33;98187.09;;;7.39;77.61
66430;BME280;53242;51.694;10.006;2022-09-29T06:25:57;98183.22;;;7.48;77.66
66430;BME280;53242;51.694;10.006;2022-09-29T06:28:19;98186.25;;;7.52;77.76
66430;BME280;53242;51.694;10.006;2022-09-29T06:30:42;98193.75;;;7.55;77.46
66430;BME280;53242;51.694;10.006;2022-09-29T06:33:04;98186.03;;;7.67;77.34
66430;BME280;53242;51.694;10.006;2022-09-29T06:35:27;98184.19;;;7.67;76.89
66430;BME280;53242;51.694;10.006;2022-09-29T06:38:08;98180.59;;;7.62;77.05
66430;BME280;53242;51.694;10.006;2022-09-29T06:40:30;98178.81;;;7.49;77.49
66430;BME280;53242;51.694;10.006;2022-09-29T06:42:53;98176.22;;;7.42;77.67
66430;BME280;53242;51.694;10.006;2022-09-29T06:45:15;98174.53;;;7.54;77.52
66430;BME280;53242;51.694;10.006;2022-09-29T06:47:38;98174.72;;;7.60;77.35
66430;BME280;53242;51.694;10.006;2022-09-29T06:50:00;98182.13;;;7.76;77.24
66430;BME280;53242;51.694;10.006;2022-09-29T06:52:23;98178.69;;;7.82;76.80
66430;BME280;53242;51.694;10.006;2022-09-29T06:54:46;98181.31;;;7.82;76.73
66430;BME280;53242;51.694;10.006;2022-09-29T06:57:09;98180.66;;;7.94;76.56
66430;BME280;53242;51.694;10.006;2022-09-29T06:59:31;98187.94;;;7.92;77.01
66430;BME280;53242;51.694;10.006;2022-09-29T07:01:54;98193.78;;;7.94;76.85
66430;BME280;53242;51.694;10.006;2022-09-29T07:04:16;98197.41;;;7.99;77.24
66430;BME280;53242;51.694;10.006;2022-09-29T07:06:40;98201.63;;;8.00;77.90
66430;BME280;53242;51.694;10.006;2022-09-29T07:09:02;98200.44;;;7.96;77.54
66430;BME280;53242;51.694;10.006;2022-09-29T07:11:27;98211.19;;;7.88;77.87
66430;BME280;53242;51.694;10.006;2022-09-29T07:13:50;98207.16;;;7.92;77.81
66430;BME280;53242;51.694;10.006;2022-09-29T07:16:14;98218.06;;;7.89;78.33
66430;BME280;53242;51.694;10.006;2022-09-29T07:18:38;98220.94;;;7.81;78.38
66430;BME280;53242;51.694;10.006;2022-09-29T07:21:01;98216.94;;;7.58;79.19
66430;BME280;53242;51.694;10.006;2022-09-29T07:23:23;98217.28;;;7.75;78.91
66430;BME280;53242;51.694;10.006;2022-09-29T07:25:46;98214.81;;;7.87;78.32
66430;BME280;53242;51.694;10.006;2022-09-29T07:28:08;98217.41;;;8.00;78.32
66430;BME280;53242;51.694;10.006;2022-09-29T07:30:31;98219.25;;;8.00;77.88
66430;BME280;53242;51.694;10.006;2022-09-29T07:32:53;98220.66;;;8.02;78.04
66430;BME280;53242;51.694;10.006;2022-09-29T07:35:19;98221.78;;;8.13;77.47
66430;BME280;53242;51.694;10.006;2022-09-29T07:37:41;98218.63;;;7.98;78.02
66430;BME280;53242;51.694;10.006;2022-09-29T07:40:04;98219.41;;;8.05;77.94
66430;BME280;53242;51.694;10.006;2022-09-29T07:42:27;98226.88;;;8.08;78.02
66430;BME280;53242;51.694;10.006;2022-09-29T07:44:50;98226.63;;;8.16;77.93
66430;BME280;53242;51.694;10.006;2022-09-29T07:47:13;98225.22;;;8.14;77.96
66430;BME280;53242;51.694;10.006;2022-09-29T07:49:36;98226.97;;;8.27;77.53
66430;BME280;53242;51.694;10.006;2022-09-29T07:51:58;98233.44;;;8.31;77.46
66430;BME280;53242;51.694;10.006;2022-09-29T07:54:21;98234.69;;;8.21;78.26
66430;BME280;53242;51.694;10.006;2022-09-29T07:56:44;98229.81;;;8.25;78.14
66430;BME280;53242;51.694;10.006;2022-09-29T07:59:09;98232.16;;;8.40;77.81
66430;BME280;53242;51.694;10.006;2022-09-29T08:01:32;98232.09;;;8.53;77.39
66430;BME280;53242;51.694;10.006;2022-09-29T08:03:54;98232.59;;;8.69;76.84
66430;BME280;53242;51.694;10.006;2022-09-29T08:06:17;98233.63;;;8.68;77.01
66430;BME280;53242;51.694;10.006;2022-09-29T08:08:41;98232.88;;;8.86;76.40
66430;BME280;53242;51.694;10.006;2022-09-29T08:11:11;98235.50;;;8.93;76.30
66430;BME280;53242;51.694;10.006;2022-09-29T08:13:34;98236.38;;;9.05;75.91
66430;BME280;53242;51.694;10.006;2022-09-29T08:15:59;98235.53;;;9.11;75.79
66430;BME280;53242;51.694;10.006;2022-09-29T08:18:22;98245.47;;;9.09;75.89
66430;BME280;53242;51.694;10.006;2022-09-29T08:20:46;98253.03;;;8.99;76.39
66430;BME280;53242;51.694;10.006;2022-09-29T08:23:09;98251.84;;;8.95;76.85
66430;BME280;53242;51.694;10.006;2022-09-29T08:25:31;98250.28;;;8.87;77.24
66430;BME280;53242;51.694;10.006;2022-09-29T08:27:54;98252.88;;;8.94;77.21
66430;BME280;53242;51.694;10.006;2022-09-29T08:30:17;98254.81;;;9.05;76.75
66430;BME280;53242;51.694;10.006;2022-09-29T08:32:39;98261.16;;;9.23;76.66
66430;BME280;53242;51.694;10.006;2022-09-29T08:35:02;98259.69;;;9.27;76.24
66430;BME280;53242;51.694;10.006;2022-09-29T08:37:26;98260.06;;;9.30;76.37
66430;BME280;53242;51.694;10.006;2022-09-29T08:39:48;98270.44;;;9.25;76.80
66430;BME280;53242;51.694;10.006;2022-09-29T08:44:57;98276.88;;;9.54;76.28
66430;BME280;53242;51.694;10.006;2022-09-29T08:52:15;98282.44;;;9.83;76.00
66430;BME280;53242;51.694;10.006;2022-09-29T08:54:42;98282.22;;;9.66;76.94
66430;BME280;53242;51.694;10.006;2022-09-29T08:57:06;98284.25;;;9.64;77.10
66430;BME280;53242;51.694;10.006;2022-09-29T08:59:37;98283.22;;;9.84;76.42
66430;BME280;53242;51.694;10.006;2022-09-29T09:07:55;98295.13;;;9.93;76.33
66430;BME280;53242;51.694;10.006;2022-09-29T09:10:44;98297.66;;;9.81;76.88
66430;BME280;53242;51.694;10.006;2022-09-29T09:16:27;98290.66;;;9.94;76.41
66430;BME280;53242;51.694;10.006;2022-09-29T09:21:46;98298.75;;;10.29;76.20
66430;BME280;53242;51.694;10.006;2022-09-29T09:26:45;98303.56;;;10.32;76.15
66430;BME280;53242;51.694;10.006;2022-09-29T09:31:42;98295.16;;;10.73;75.22
66430;BME280;53242;51.694;10.006;2022-09-29T09:34:17;98300.28;;;10.98;74.53
66430;BME280;53242;51.694;10.006;2022-09-29T09:39:30;98291.56;;;10.97;75.06
66430;BME280;53242;51.694;10.006;2022-09-29T09:41:55;98292.75;;;11.13;74.52
66430;BME280;53242;51.694;10.006;2022-09-29T09:44:36;98288.97;;;11.21;74.91
66430;BME280;53242;51.694;10.006;2022-09-29T09:49:41;98291.16;;;11.60;73.99
66430;BME280;53242;51.694;10.006;2022-09-29T09:57:40;98293.53;;;11.73;73.70
66430;BME280;53242;51.694;10.006;2022-09-29T10:00:24;98287.31;;;11.91;73.71
66430;BME280;53242;51.694;10.006;2022-09-29T10:02:52;98295.16;;;12.10;73.39
66430;BME280;53242;51.694;10.006;2022-09-29T10:05:31;98288.88;;;12.28;73.11
66430;BME280;53242;51.694;10.006;2022-09-29T10:07:55;98291.44;;;12.23;72.71
66430;BME280;53242;51.694;10.006;2022-09-29T10:10:20;98286.69;;;12.37;72.20
66430;BME280;53242;51.694;10.006;2022-09-29T10:12:43;98280.19;;;12.44;71.62
66430;BME280;53242;51.694;10.006;2022-09-29T10:15:23;98291.25;;;12.41;71.34
66430;BME280;53242;51.694;10.006;2022-09-29T10:18:01;98290.41;;;12.53;71.25
66430;BME280;53242;51.694;10.006;2022-09-29T10:20:36;98283.13;;;12.60;70.66
66430;BME280;53242;51.694;10.006;2022-09-29T10:25:57;98277.69;;;12.66;69.16
66430;BME280;53242;51.694;10.006;2022-09-29T10:28:22;98278.31;;;12.74;69.15
66430;BME280;53242;51.694;10.006;2022-09-29T10:30:45;98278.81;;;12.71;67.62
66430;BME280;53242;51.694;10.006;2022-09-29T10:33:22;98282.38;;;12.93;68.65
66430;BME280;53242;51.694;10.006;2022-09-29T10:35:47;98280.44;;;13.06;69.01
66430;BME280;53242;51.694;10.006;2022-09-29T10:38:24;98280.06;;;13.14;68.36
66430;BME280;53242;51.694;10.006;2022-09-29T10:41:02;98281.50;;;13.22;68.14
66430;BME280;53242;51.694;10.006;2022-09-29T10:43:35;98280.47;;;13.23;67.84
66430;BME280;53242;51.694;10.006;2022-09-29T10:45:59;98280.22;;;13.24;68.26
66430;BME280;53242;51.694;10.006;2022-09-29T10:48:21;98287.13;;;13.25;67.69
66430;BME280;53242;51.694;10.006;2022-09-29T10:53:35;98283.38;;;13.38;64.83
66430;BME280;53242;51.694;10.006;2022-09-29T10:55:59;98285.28;;;13.43;65.34
66430;BME280;53242;51.694;10.006;2022-09-29T11:00:45;98287.91;;;13.60;65.19
66430;BME280;53242;51.694;10.006;2022-09-29T11:03:24;98293.53;;;13.63;64.56
66430;BME280;53242;51.694;10.006;2022-09-29T11:06:00;98301.38;;;13.75;64.89
66430;BME280;53242;51.694;10.006;2022-09-29T11:08:23;98295.59;;;13.78;64.93
66430;BME280;53242;51.694;10.006;2022-09-29T11:15:49;98292.25;;;13.88;64.61
66430;BME280;53242;51.694;10.006;2022-09-29T11:18:26;98298.69;;;13.92;64.12
66430;BME280;53242;51.694;10.006;2022-09-29T11:21:00;98295.16;;;14.09;63.08
66430;BME280;53242;51.694;10.006;2022-09-29T11:23:42;98300.72;;;14.07;62.93
66430;BME280;53242;51.694;10.006;2022-09-29T11:26:18;98295.16;;;14.09;62.13
66430;BME280;53242;51.694;10.006;2022-09-29T11:31:42;98311.00;;;14.21;61.45
66430;BME280;53242;51.694;10.006;2022-09-29T11:36:54;98307.75;;;14.41;60.85
66430;BME280;53242;51.694;10.006;2022-09-29T11:54:58;98306.44;;;14.66;57.56
66430;BME280;53242;51.694;10.006;2022-09-29T12:00:17;98310.50;;;15.01;57.89
66430;BME280;53242;51.694;10.006;2022-09-29T12:04:01;98316.06;;;14.99;57.09
66430;BME280;53242;51.694;10.006;2022-09-29T12:13:46;98310.09;;;15.52;54.77
66430;BME280;53242;51.694;10.006;2022-09-29T12:16:21;98299.47;;;15.57;55.11
66430;BME280;53242;51.694;10.006;2022-09-29T12:21:31;98307.44;;;15.89;54.83
66430;BME280;53242;51.694;10.006;2022-09-29T12:23:55;98307.19;;;15.96;55.36
66430;BME280;53242;51.694;10.006;2022-09-29T12:26:21;98297.03;;;15.93;55.04
66430;BME280;53242;51.694;10.006;2022-09-29T12:28:50;98299.69;;;15.88;54.66
66430;BME280;53242;51.694;10.006;2022-09-29T12:31:24;98304.66;;;15.79;55.32
66430;BME280;53242;51.694;10.006;2022-09-29T12:33:53;98305.06;;;15.55;54.41
66430;BME280;53242;51.694;10.006;2022-09-29T12:36:25;98301.19;;;15.73;54.03
66430;BME280;53242;51.694;10.006;2022-09-29T12:47:53;98299.78;;;16.14;53.91
66430;BME280;53242;51.694;10.006;2022-09-29T12:50:29;98307.28;;;16.17;54.12
66430;BME280;53242;51.694;10.006;2022-09-29T12:53:05;98295.78;;;16.11;54.11
66430;BME280;53242;51.694;10.006;2022-09-29T12:58:05;98299.56;;;16.15;53.47
66430;BME280;53242;51.694;10.006;2022-09-29T13:00:32;98296.34;;;16.13;53.40
66430;BME280;53242;51.694;10.006;2022-09-29T13:29:59;98298.63;;;16.68;51.46
66430;BME280;53242;51.694;10.006;2022-09-29T13:32:24;98291.72;;;16.72;51.82
66430;BME280;53242;51.694;10.006;2022-09-29T13:34:53;98289.06;;;16.67;51.13
66430;BME280;53242;51.694;10.006;2022-09-29T13:37:17;98294.09;;;16.53;51.36
66430;BME280;53242;51.694;10.006;2022-09-29T13:39:43;98292.72;;;16.45;51.54
66430;BME280;53242;51.694;10.006;2022-09-29T13:42:44;98293.78;;;16.39;50.70
66430;BME280;53242;51.694;10.006;2022-09-29T13:47:44;98302.72;;;16.12;51.14
66430;BME280;53242;51.694;10.006;2022-09-29T13:50:46;98298.25;;;16.18;50.85
66430;BME280;53242;51.694;10.006;2022-09-29T13:53:35;98295.03;;;16.16;51.39
66430;BME280;53242;51.694;10.006;2022-09-29T13:58:25;98299.03;;;16.18;51.70
66430;BME280;53242;51.694;10.006;2022-09-29T14:00:48;98302.72;;;16.12;51.24
66430;BME280;53242;51.694;10.006;2022-09-29T14:06:16;98308.06;;;16.17;50.26
66430;BME280;53242;51.694;10.006;2022-09-29T14:08:49;98312.88;;;16.15;51.16
66430;BME280;53242;51.694;10.006;2022-09-29T14:11:30;98319.00;;;16.21;50.74
66430;BME280;53242;51.694;10.006;2022-09-29T14:14:17;98314.97;;;16.13;49.68
66430;BME280;53242;51.694;10.006;2022-09-29T14:20:11;98312.63;;;16.22;49.54
66430;BME280;53242;51.694;10.006;2022-09-29T14:32:54;98319.94;;;15.94;49.53
66430;BME280;53242;51.694;10.006;2022-09-29T14:37:45;98321.94;;;15.76;50.00
66430;BME280;53242;51.694;10.006;2022-09-29T14:40:15;98319.53;;;15.75;49.71
66430;BME280;53242;51.694;10.006;2022-09-29T14:43:04;98322.19;;;15.75;50.57
66430;BME280;53242;51.694;10.006;2022-09-29T14:45:28;98329.66;;;15.73;51.17
66430;BME280;53242;51.694;10.006;2022-09-29T14:48:21;98332.78;;;15.65;51.26
66430;BME280;53242;51.694;10.006;2022-09-29T14:51:14;98337.16;;;15.43;51.26
66430;BME280;53242;51.694;10.006;2022-09-29T14:54:23;98340.13;;;15.47;51.75
66430;BME280;53242;51.694;10.006;2022-09-29T14:57:09;98338.81;;;15.50;51.86
66430;BME280;53242;51.694;10.006;2022-09-29T15:04:38;98346.25;;;15.53;51.43
66430;BME280;53242;51.694;10.006;2022-09-29T15:07:03;98347.88;;;15.54;51.05
66430;BME280;53242;51.694;10.006;2022-09-29T15:09:25;98349.41;;;15.44;50.66
66430;BME280;53242;51.694;10.006;2022-09-29T15:11:52;98341.91;;;15.41;50.38
66430;BME280;53242;51.694;10.006;2022-09-29T15:14:30;98346.19;;;15.42;50.47
66430;BME280;53242;51.694;10.006;2022-09-29T15:21:59;98358.59;;;15.32;51.06
66430;BME280;53242;51.694;10.006;2022-09-29T15:25:10;98354.13;;;15.37;51.31
66430;BME280;53242;51.694;10.006;2022-09-29T15:27:13;98358.13;;;15.40;50.83
66430;BME280;53242;51.694;10.006;2022-09-29T15:29:36;98362.84;;;15.33;51.04
66430;BME280;53242;51.694;10.006;2022-09-29T15:31:59;98359.97;;;15.34;51.06
66430;BME280;53242;51.694;10.006;2022-09-29T15:34:23;98362.31;;;15.31;51.17
66430;BME280;53242;51.694;10.006;2022-09-29T15:36:49;98359.97;;;15.34;51.26
66430;BME280;53242;51.694;10.006;2022-09-29T15:42:00;98360.34;;;15.21;51.66
66430;BME280;53242;51.694;10.006;2022-09-29T15:44:27;98375.22;;;15.17;51.55
66430;BME280;53242;51.694;10.006;2022-09-29T15:46:51;98371.16;;;15.09;51.86
66430;BME280;53242;51.694;10.006;2022-09-29T15:49:18;98372.41;;;15.01;52.53
66430;BME280;53242;51.694;10.006;2022-09-29T15:51:53;98377.94;;;14.94;52.68
66430;BME280;53242;51.694;10.006;2022-09-29T15:54:17;98376.53;;;14.87;53.26
66430;BME280;53242;51.694;10.006;2022-09-29T15:56:43;98381.84;;;14.87;53.19
66430;BME280;53242;51.694;10.006;2022-09-29T15:59:44;98398.75;;;14.80;53.38
66430;BME280;53242;51.694;10.006;2022-09-29T16:04:59;98391.06;;;14.79;53.74